createdAt,value
2019-02-28T00:00:47.063Z,4.60
2019-02-28T00:03:15.709Z,4.60
2019-02-28T00:05:44.227Z,4.60
2019-02-28T00:08:12.759Z,4.60
2019-02-28T00:10:41.282Z,4.60
2019-02-28T00:13:09.736Z,4.50
2019-02-28T00:15:38.189Z,4.50
2019-02-28T00:18:06.755Z,4.50
2019-02-28T00:20:36.630Z,4.40
2019-02-28T00:23:05.284Z,4.40
2019-02-28T00:25:37.773Z,4.30
2019-02-28T00:28:04.030Z,4.30
2019-02-28T00:30:32.487Z,4.30
2019-02-28T00:33:00.984Z,4.30
2019-02-28T00:35:29.599Z,4.30
2019-02-28T00:37:58.061Z,4.30
2019-02-28T00:40:26.627Z,4.30
2019-02-28T00:42:55.715Z,4.20
2019-02-28T00:45:24.244Z,4.20
2019-02-28T00:47:52.756Z,4.20
2019-02-28T00:50:21.217Z,4.10
2019-02-28T00:52:49.679Z,4.20
2019-02-28T00:55:18.241Z,4.10
2019-02-28T00:57:46.719Z,4.10
2019-02-28T01:00:20.208Z,4.00
2019-02-28T01:02:52.105Z,3.90
2019-02-28T01:05:19.075Z,3.90
2019-02-28T01:07:48.943Z,3.80
2019-02-28T01:10:18.018Z,3.80
2019-02-28T01:12:46.472Z,3.70
2019-02-28T01:15:16.192Z,3.60
2019-02-28T01:17:44.840Z,3.50
2019-02-28T01:20:16.334Z,3.50
2019-02-28T01:22:44.132Z,3.40
2019-02-28T01:25:14.654Z,3.30
2019-02-28T01:27:43.156Z,3.20
2019-02-28T01:30:33.471Z,3.10
2019-02-28T01:33:01.929Z,3.10
2019-02-28T01:35:30.463Z,3.00
2019-02-28T01:37:58.963Z,3.00
2019-02-28T01:40:27.425Z,2.90
2019-02-28T01:42:56.020Z,3.10
2019-02-28T01:45:24.614Z,3.10
2019-02-28T01:47:53.064Z,3.20
2019-02-28T01:50:21.595Z,3.30
2019-02-28T01:52:50.178Z,3.30
2019-02-28T01:55:18.692Z,3.20
2019-02-28T01:57:47.263Z,3.30
2019-02-28T02:00:17.715Z,3.30
2019-02-28T02:02:46.258Z,3.30
2019-02-28T02:05:17.000Z,3.30
2019-02-28T02:07:45.319Z,3.40
2019-02-28T02:10:21.269Z,3.40
2019-02-28T02:12:48.451Z,3.40
2019-02-28T02:15:17.918Z,3.40
2019-02-28T02:17:46.643Z,3.50
2019-02-28T02:20:16.073Z,3.60
2019-02-28T02:22:45.406Z,3.60
2019-02-28T02:25:14.251Z,3.70
2019-02-28T02:27:42.954Z,3.70
2019-02-28T02:30:23.053Z,3.80
2019-02-28T02:32:51.647Z,3.80
2019-02-28T02:35:20.267Z,4.00
2019-02-28T02:37:48.827Z,4.10
2019-02-28T02:40:17.468Z,4.20
2019-02-28T02:42:48.652Z,4.20
2019-02-28T02:45:16.364Z,4.30
2019-02-28T02:47:44.936Z,4.30
2019-02-28T02:50:14.613Z,4.30
2019-02-28T02:52:43.698Z,4.20
2019-02-28T02:55:13.123Z,4.20
2019-02-28T02:57:41.747Z,4.10
2019-02-28T03:00:15.725Z,4.10
2019-02-28T03:02:44.507Z,4.10
2019-02-28T03:05:13.184Z,4.10
2019-02-28T03:07:41.869Z,4.10
2019-02-28T03:10:17.362Z,4.10
2019-02-28T03:12:43.323Z,4.10
2019-02-28T03:15:14.171Z,4.10
2019-02-28T03:17:46.473Z,4.10
2019-02-28T03:20:14.086Z,4.10
2019-02-28T03:22:42.942Z,4.10
2019-02-28T03:25:16.113Z,4.10
2019-02-28T03:27:44.639Z,4.10
2019-02-28T03:30:28.489Z,4.10
2019-02-28T03:32:48.557Z,4.10
2019-02-28T03:35:17.217Z,4.10
2019-02-28T03:37:45.793Z,4.10
2019-02-28T03:40:15.106Z,4.10
2019-02-28T03:42:43.633Z,4.10
2019-02-28T03:45:15.935Z,4.10
2019-02-28T03:47:44.471Z,4.10
2019-02-28T03:50:13.422Z,4.10
2019-02-28T03:52:44.118Z,4.10
2019-02-28T03:55:13.608Z,4.10
2019-02-28T03:57:42.273Z,4.10
2019-02-28T04:00:22.189Z,4.10
2019-02-28T04:02:56.666Z,4.10
2019-02-28T04:05:26.466Z,4.10
2019-02-28T04:07:53.530Z,4.20
2019-02-28T04:10:22.542Z,4.20
2019-02-28T04:12:51.390Z,4.20
2019-02-28T04:15:21.123Z,4.20
2019-02-28T04:17:49.691Z,4.20
2019-02-28T04:20:18.221Z,4.20
2019-02-28T04:22:47.297Z,4.20
2019-02-28T04:25:22.920Z,4.20
2019-02-28T04:27:45.979Z,4.20
2019-02-28T04:30:15.848Z,4.30
2019-02-28T04:32:44.378Z,4.20
2019-02-28T04:35:12.985Z,4.30
2019-02-28T04:37:46.545Z,4.30
2019-02-28T04:40:12.974Z,4.30
2019-02-28T04:42:41.760Z,4.30
2019-02-28T04:45:15.085Z,4.30
2019-02-28T04:47:43.548Z,4.30
2019-02-28T04:50:12.750Z,4.30
2019-02-28T04:52:46.670Z,4.40
2019-02-28T04:55:12.313Z,4.40
2019-02-28T04:57:40.780Z,4.40
2019-02-28T05:00:17.177Z,4.40
2019-02-28T05:02:45.633Z,4.40
2019-02-28T05:05:14.337Z,4.50
2019-02-28T05:07:42.928Z,4.50
2019-02-28T05:10:12.175Z,4.50
2019-02-28T05:12:41.237Z,4.50
2019-02-28T05:15:14.447Z,4.50
2019-02-28T05:17:43.035Z,4.60
2019-02-28T05:20:12.294Z,4.60
2019-02-28T05:22:41.341Z,4.50
2019-02-28T05:25:11.120Z,4.50
2019-02-28T05:27:39.762Z,4.60
2019-02-28T05:30:11.407Z,4.60
2019-02-28T05:32:40.031Z,4.60
2019-02-28T05:35:08.662Z,4.60
2019-02-28T05:37:37.164Z,4.60
2019-02-28T05:40:11.942Z,4.60
2019-02-28T05:42:40.476Z,4.60
2019-02-28T05:45:11.328Z,4.60
2019-02-28T05:47:46.408Z,4.60
2019-02-28T05:50:15.471Z,4.70
2019-02-28T05:52:42.098Z,4.60
2019-02-28T05:55:11.007Z,4.60
2019-02-28T05:57:43.433Z,4.60
2019-02-28T06:00:16.108Z,4.60
2019-02-28T06:02:44.576Z,4.70
2019-02-28T06:05:13.106Z,4.60
2019-02-28T06:07:41.668Z,4.60
2019-02-28T06:10:14.062Z,4.60
2019-02-28T06:12:43.845Z,4.60
2019-02-28T06:15:17.363Z,4.60
2019-02-28T06:17:45.923Z,4.60
2019-02-28T06:20:16.946Z,4.60
2019-02-28T06:22:45.088Z,4.70
2019-02-28T06:25:22.503Z,4.70
2019-02-28T06:27:49.121Z,4.70
2019-02-28T06:30:34.285Z,4.70
2019-02-28T06:33:02.747Z,4.70
2019-02-28T06:35:31.197Z,4.70
2019-02-28T06:37:59.696Z,4.70
2019-02-28T06:40:32.642Z,4.70
2019-02-28T06:42:58.332Z,4.70
2019-02-28T06:45:26.944Z,4.70
2019-02-28T06:47:55.402Z,4.70
2019-02-28T06:50:24.365Z,4.70
2019-02-28T06:52:52.888Z,4.70
2019-02-28T06:55:25.798Z,4.70
2019-02-28T06:57:54.401Z,4.70
2019-02-28T07:00:22.971Z,4.70
2019-02-28T07:02:51.421Z,4.70
2019-02-28T07:05:24.487Z,4.70
2019-02-28T07:07:50.311Z,4.70
2019-02-28T07:10:19.067Z,4.70
2019-02-28T07:12:47.599Z,4.80
2019-02-28T07:15:16.190Z,4.80
2019-02-28T07:17:46.280Z,4.90
2019-02-28T07:20:16.466Z,4.90
2019-02-28T07:22:45.025Z,4.80
2019-02-28T07:25:13.889Z,4.80
2019-02-28T07:27:42.753Z,4.80
2019-02-28T07:30:19.219Z,5.00
2019-02-28T07:32:48.195Z,5.00
2019-02-28T07:35:16.789Z,4.90
2019-02-28T07:37:45.478Z,4.90
2019-02-28T07:40:16.110Z,4.90
2019-02-28T07:42:45.613Z,4.80
2019-02-28T07:45:15.360Z,4.80
2019-02-28T07:47:44.031Z,4.90
2019-02-28T07:50:16.168Z,4.90
2019-02-28T07:52:44.827Z,4.90
2019-02-28T07:55:15.294Z,5.10
2019-02-28T07:57:43.886Z,5.00
2019-02-28T08:00:21.136Z,5.00
2019-02-28T08:02:49.736Z,5.00
2019-02-28T08:05:18.517Z,5.00
2019-02-28T08:07:52.020Z,5.00
2019-02-28T08:10:22.830Z,5.00
2019-02-28T08:12:51.408Z,5.00
2019-02-28T08:15:23.899Z,5.00
2019-02-28T08:17:52.595Z,5.00
2019-02-28T08:20:21.481Z,5.00
2019-02-28T08:22:50.181Z,5.10
2019-02-28T08:25:18.715Z,5.10
2019-02-28T08:27:47.214Z,5.20
2019-02-28T08:30:27.313Z,5.20
2019-02-28T08:32:55.802Z,5.20
2019-02-28T08:35:24.248Z,5.10
2019-02-28T08:37:57.019Z,5.20
2019-02-28T08:40:26.778Z,5.20
2019-02-28T08:42:55.031Z,5.30
2019-02-28T08:45:23.606Z,5.30
2019-02-28T08:47:55.252Z,5.40
2019-02-28T08:50:24.023Z,5.40
2019-02-28T08:52:57.877Z,5.40
2019-02-28T08:55:29.103Z,5.40
2019-02-28T08:58:03.941Z,5.50
2019-02-28T09:00:31.049Z,5.50
2019-02-28T09:02:57.248Z,5.50
2019-02-28T09:05:27.747Z,5.60
2019-02-28T09:07:56.007Z,5.60
2019-02-28T09:10:25.687Z,5.70
2019-02-28T09:12:54.293Z,5.70
2019-02-28T09:15:23.184Z,5.80
2019-02-28T09:17:51.715Z,5.80
2019-02-28T09:20:20.324Z,5.80
2019-02-28T09:22:48.904Z,5.90
2019-02-28T09:25:22.135Z,6.00
2019-02-28T09:27:49.448Z,6.00
2019-02-28T09:30:26.538Z,6.10
2019-02-28T09:32:54.198Z,6.20
2019-02-28T09:35:22.737Z,6.20
2019-02-28T09:37:51.349Z,6.30
2019-02-28T09:40:19.821Z,6.40
2019-02-28T09:42:51.186Z,6.50
2019-02-28T09:45:22.787Z,6.50
2019-02-28T09:47:51.313Z,6.60
2019-02-28T09:50:22.441Z,6.60
2019-02-28T09:52:51.592Z,6.70
2019-02-28T09:55:20.124Z,6.80
2019-02-28T09:57:53.719Z,6.80
2019-02-28T10:00:23.965Z,6.90
2019-02-28T10:02:53.071Z,6.90
2019-02-28T10:05:21.819Z,7.00
2019-02-28T10:07:50.545Z,7.00
2019-02-28T10:10:22.216Z,7.00
2019-02-28T10:12:50.821Z,7.00
2019-02-28T10:15:23.172Z,7.10
2019-02-28T10:17:51.887Z,7.20
2019-02-28T10:20:26.544Z,7.30
2019-02-28T10:22:52.927Z,7.30
2019-02-28T10:25:21.556Z,7.30
2019-02-28T10:27:50.124Z,7.40
2019-02-28T10:30:31.117Z,7.40
2019-02-28T10:32:53.530Z,7.50
2019-02-28T10:35:22.258Z,7.50
2019-02-28T10:37:50.756Z,7.50
2019-02-28T10:40:26.885Z,7.60
2019-02-28T10:42:55.708Z,7.70
2019-02-28T10:45:24.981Z,7.70
2019-02-28T10:47:53.598Z,7.80
2019-02-28T10:50:33.655Z,7.70
2019-02-28T10:53:05.593Z,7.70
2019-02-28T10:55:33.408Z,7.80
2019-02-28T10:58:02.069Z,7.90
2019-02-28T11:00:40.146Z,7.90
2019-02-28T11:03:31.737Z,8.00
2019-02-28T11:05:58.441Z,7.90
2019-02-28T11:08:26.965Z,8.00
2019-02-28T11:10:55.622Z,8.00
2019-02-28T11:13:24.221Z,8.10
2019-02-28T11:15:54.495Z,8.20
2019-02-28T11:18:23.058Z,8.20
2019-02-28T11:20:51.661Z,8.30
2019-02-28T11:23:21.922Z,8.20
2019-02-28T11:25:50.416Z,8.20
2019-02-28T11:28:19.474Z,8.30
2019-02-28T11:30:48.938Z,8.40
2019-02-28T11:33:18.880Z,8.40
2019-02-28T11:35:47.739Z,8.40
2019-02-28T11:38:20.501Z,8.50
2019-02-28T11:40:46.709Z,8.40
2019-02-28T11:43:15.246Z,8.40
2019-02-28T11:45:47.870Z,8.40
2019-02-28T11:48:20.401Z,8.40
2019-02-28T11:50:49.076Z,8.30
2019-02-28T11:53:19.068Z,8.40
2019-02-28T11:55:48.046Z,8.50
2019-02-28T11:58:17.849Z,8.60
2019-02-28T12:00:46.837Z,8.50
2019-02-28T12:03:15.337Z,8.50
2019-02-28T12:05:43.868Z,8.60
2019-02-28T12:08:12.484Z,8.70
2019-02-28T12:10:41.044Z,8.70
2019-02-28T12:13:09.769Z,8.80
2019-02-28T12:15:40.339Z,8.70
2019-02-28T12:18:08.995Z,8.70
2019-02-28T12:20:37.594Z,8.80
2019-02-28T12:23:06.304Z,8.80
2019-02-28T12:25:35.016Z,8.80
2019-02-28T12:28:06.350Z,8.80
2019-02-28T12:30:35.035Z,8.90
2019-02-28T12:33:03.622Z,8.90
2019-02-28T12:35:37.270Z,9.00
2019-02-28T12:38:02.903Z,8.90
2019-02-28T12:40:37.045Z,8.80
2019-02-28T12:43:08.745Z,8.80
2019-02-28T12:45:40.359Z,8.80
2019-02-28T12:48:08.855Z,8.80
2019-02-28T12:50:37.379Z,8.90
2019-02-28T12:53:05.993Z,8.90
2019-02-28T12:55:35.394Z,8.80
2019-02-28T12:58:04.820Z,8.90
2019-02-28T13:00:38.480Z,8.90
2019-02-28T13:03:09.082Z,8.80
2019-02-28T13:05:37.425Z,8.80
2019-02-28T13:08:07.055Z,8.80
2019-02-28T13:10:36.266Z,8.70
2019-02-28T13:13:06.939Z,8.60
2019-02-28T13:15:35.633Z,8.60
2019-02-28T13:18:08.842Z,8.70
2019-02-28T13:20:37.091Z,8.70
2019-02-28T13:23:05.962Z,8.60
2019-02-28T13:25:34.639Z,8.60
2019-02-28T13:28:03.200Z,8.60
2019-02-28T13:30:31.718Z,8.50
2019-02-28T13:33:00.222Z,8.50
2019-02-28T13:35:34.195Z,8.50
2019-02-28T13:38:02.785Z,8.40
2019-02-28T13:40:31.351Z,8.50
2019-02-28T13:43:01.761Z,8.50
2019-02-28T13:45:30.063Z,8.40
2019-02-28T13:47:58.647Z,8.40
2019-02-28T13:50:28.615Z,8.40
2019-02-28T13:53:02.364Z,8.40
2019-02-28T13:55:27.367Z,8.40
2019-02-28T13:57:55.969Z,8.40
2019-02-28T14:00:28.152Z,8.40
2019-02-28T14:02:58.764Z,8.40
2019-02-28T14:05:27.465Z,8.40
2019-02-28T14:07:55.925Z,8.40
2019-02-28T14:10:24.777Z,8.40
2019-02-28T14:12:57.107Z,8.30
2019-02-28T14:15:48.038Z,8.30
2019-02-28T14:18:15.178Z,8.30
2019-02-28T14:20:44.712Z,8.30
2019-02-28T14:23:13.474Z,8.30
2019-02-28T14:25:42.227Z,8.30
2019-02-28T14:28:10.749Z,8.20
2019-02-28T14:30:39.424Z,8.20
2019-02-28T14:33:08.605Z,8.20
2019-02-28T14:35:38.625Z,8.20
2019-02-28T14:38:07.488Z,8.20
2019-02-28T14:40:36.192Z,8.10
2019-02-28T14:43:06.768Z,8.00
2019-02-28T14:45:42.989Z,8.00
2019-02-28T14:48:11.468Z,8.00
2019-02-28T14:50:40.001Z,7.90
2019-02-28T14:53:13.086Z,7.80
2019-02-28T14:55:38.946Z,7.80
2019-02-28T14:58:07.472Z,7.80
2019-02-28T15:00:39.072Z,7.80
2019-02-28T15:03:06.770Z,7.80
2019-02-28T15:05:38.642Z,7.70
2019-02-28T15:08:07.129Z,7.70
2019-02-28T15:10:35.733Z,7.60
2019-02-28T15:13:05.084Z,7.60
2019-02-28T15:15:36.196Z,7.60
2019-02-28T15:18:04.813Z,7.50
2019-02-28T15:20:33.423Z,7.40
2019-02-28T15:23:02.007Z,7.40
2019-02-28T15:25:31.074Z,7.30
2019-02-28T15:27:59.683Z,7.30
2019-02-28T15:30:36.841Z,7.20
2019-02-28T15:33:05.363Z,7.20
2019-02-28T15:35:33.874Z,7.10
2019-02-28T15:38:05.794Z,7.00
2019-02-28T15:40:40.806Z,7.00
2019-02-28T15:43:09.419Z,7.00
2019-02-28T15:45:37.941Z,7.10
2019-02-28T15:48:06.466Z,7.90
2019-02-28T15:50:35.167Z,8.50
2019-02-28T15:53:03.861Z,9.00
2019-02-28T15:55:35.117Z,9.00
2019-02-28T15:58:05.390Z,8.90
2019-02-28T16:00:35.091Z,8.80
2019-02-28T16:03:03.689Z,8.70
2019-02-28T16:05:32.334Z,8.00
2019-02-28T16:08:00.851Z,7.50
2019-02-28T16:10:33.312Z,7.20
2019-02-28T16:13:02.106Z,6.90
2019-02-28T16:15:30.635Z,6.70
2019-02-28T16:17:59.324Z,6.40
2019-02-28T16:20:28.628Z,6.30
2019-02-28T16:22:58.384Z,6.10
2019-02-28T16:25:37.695Z,6.00
2019-02-28T16:28:08.926Z,5.90
2019-02-28T16:30:38.888Z,5.70
2019-02-28T16:33:07.727Z,5.60
2019-02-28T16:35:36.251Z,5.50
2019-02-28T16:38:06.543Z,5.40
2019-02-28T16:40:35.362Z,5.40
2019-02-28T16:43:04.017Z,5.30
2019-02-28T16:45:43.333Z,5.20
2019-02-28T16:48:11.818Z,5.10
2019-02-28T16:50:40.263Z,5.00
2019-02-28T16:53:14.811Z,5.00
2019-02-28T16:55:39.242Z,4.90
2019-02-28T16:58:07.694Z,4.80
2019-02-28T17:00:36.368Z,4.80
2019-02-28T17:03:07.295Z,4.70
2019-02-28T17:05:36.791Z,4.60
2019-02-28T17:08:06.763Z,4.60
2019-02-28T17:10:40.039Z,4.50
2019-02-28T17:13:17.873Z,4.40
2019-02-28T17:16:01.395Z,4.30
2019-02-28T17:18:29.016Z,4.20
2019-02-28T17:20:57.469Z,4.10
2019-02-28T17:23:25.915Z,4.10
2019-02-28T17:25:56.516Z,4.00
2019-02-28T17:28:46.632Z,3.90
2019-02-28T17:34:12.808Z,3.80
2019-02-28T17:36:44.116Z,3.70
2019-02-28T17:39:14.785Z,3.70
2019-02-28T17:41:41.663Z,3.60
2019-02-28T17:44:28.252Z,3.60
2019-02-28T17:47:02.706Z,3.60
2019-02-28T17:49:59.974Z,3.50
2019-02-28T17:52:38.892Z,3.40
2019-02-28T17:55:16.358Z,3.30
2019-02-28T17:58:05.712Z,3.20
2019-02-28T18:01:01.469Z,3.20
2019-02-28T18:03:44.979Z,3.10
2019-02-28T18:06:15.266Z,3.10
2019-02-28T18:09:01.802Z,3.00
2019-02-28T18:11:57.048Z,3.00
2019-02-28T18:15:08.839Z,2.90
2019-02-28T18:17:41.937Z,2.80
2019-02-28T18:20:32.178Z,2.70
2019-02-28T18:23:05.989Z,2.70
2019-02-28T18:25:40.276Z,2.70
2019-02-28T18:28:18.845Z,2.60
2019-02-28T18:31:06.171Z,2.60
2019-02-28T18:33:34.863Z,2.60
2019-02-28T18:36:05.154Z,2.50
2019-02-28T18:38:35.742Z,2.50
2019-02-28T18:41:06.452Z,2.40
2019-02-28T18:43:35.226Z,2.40
2019-02-28T18:46:04.457Z,2.40
2019-02-28T18:48:33.090Z,2.40
2019-02-28T18:51:01.668Z,2.30
2019-02-28T18:53:30.175Z,2.30
2019-02-28T18:55:58.625Z,2.30
2019-02-28T18:58:27.083Z,2.30
2019-02-28T19:00:55.648Z,2.20
2019-02-28T19:03:24.188Z,2.10
2019-02-28T19:05:52.708Z,2.10
2019-02-28T19:08:21.236Z,2.10
2019-02-28T19:10:49.912Z,2.00
2019-02-28T19:13:18.413Z,2.00
2019-02-28T19:15:46.990Z,1.90
2019-02-28T19:18:15.452Z,1.90
2019-02-28T19:20:43.980Z,1.80
2019-02-28T19:23:12.511Z,1.80
2019-02-28T19:25:41.111Z,1.80
2019-02-28T19:28:09.580Z,1.70
2019-02-28T19:30:38.080Z,1.70
2019-02-28T19:33:06.548Z,1.60
2019-02-28T19:35:35.085Z,1.60
2019-02-28T19:38:03.748Z,1.50
2019-02-28T19:40:32.223Z,1.50
2019-02-28T19:43:00.728Z,1.50
2019-02-28T19:45:35.169Z,1.50
2019-02-28T19:48:04.852Z,1.40
2019-02-28T19:50:33.364Z,1.30
2019-02-28T19:53:01.831Z,1.30
2019-02-28T19:55:30.399Z,1.30
2019-02-28T19:57:58.864Z,1.20
2019-02-28T20:00:27.523Z,1.20
2019-02-28T20:02:56.088Z,1.10
2019-02-28T20:05:24.976Z,1.10
2019-02-28T20:07:53.473Z,1.00
2019-02-28T20:10:22.326Z,0.90
2019-02-28T20:12:50.840Z,0.90
2019-02-28T20:15:22.378Z,0.80
2019-02-28T20:17:51.117Z,0.80
2019-02-28T20:20:25.788Z,0.70
2019-02-28T20:22:54.362Z,0.70
2019-02-28T20:25:22.976Z,0.70
2019-02-28T20:27:51.583Z,0.70
2019-02-28T20:30:22.111Z,0.70
2019-02-28T20:32:50.575Z,0.70
2019-02-28T20:35:26.097Z,0.70
2019-02-28T20:37:49.822Z,0.60
2019-02-28T20:40:33.032Z,0.50
2019-02-28T20:43:01.624Z,0.40
2019-02-28T20:45:30.220Z,0.40
2019-02-28T20:47:58.739Z,0.40
2019-02-28T20:50:36.151Z,0.40
2019-02-28T20:53:05.468Z,0.40
2019-02-28T20:55:34.121Z,0.40
2019-02-28T20:58:02.878Z,0.30
2019-02-28T21:00:31.485Z,0.30
2019-02-28T21:03:00.022Z,0.40
2019-02-28T21:05:28.599Z,0.30
2019-02-28T21:07:57.071Z,0.30
2019-02-28T21:10:25.683Z,0.20
2019-02-28T21:12:54.243Z,0.00
2019-02-28T21:15:24.668Z,0.00
2019-02-28T21:17:53.182Z,0.10
2019-02-28T21:20:21.854Z,0.00
2019-02-28T21:22:50.763Z,0.10
2019-02-28T21:25:19.545Z,0.10
2019-02-28T21:27:48.061Z,0.00
2019-02-28T21:30:19.024Z,0.00
2019-02-28T21:32:47.662Z,0.00
2019-02-28T21:35:17.231Z,-0.10
2019-02-28T21:37:47.144Z,-0.10
2019-02-28T21:40:20.647Z,-0.20
2019-02-28T21:42:49.233Z,-0.10
2019-02-28T21:45:28.065Z,-0.10
2019-02-28T21:47:56.750Z,-0.10
2019-02-28T21:50:25.362Z,-0.10
2019-02-28T21:52:54.041Z,-0.10
2019-02-28T21:55:22.708Z,-0.10
2019-02-28T21:57:51.247Z,-0.10
2019-02-28T22:00:25.148Z,-0.10
2019-02-28T22:02:53.737Z,-0.20
2019-02-28T22:05:22.330Z,-0.20
2019-02-28T22:07:50.777Z,-0.30
2019-02-28T22:10:19.526Z,-0.30
2019-02-28T22:12:48.053Z,-0.30
2019-02-28T22:15:23.633Z,-0.20
2019-02-28T22:17:52.264Z,-0.30
2019-02-28T22:20:20.790Z,-0.30
2019-02-28T22:22:49.335Z,-0.30
2019-02-28T22:25:18.187Z,-0.30
2019-02-28T22:27:46.768Z,-0.30
2019-02-28T22:30:38.741Z,-0.20
2019-02-28T22:33:11.916Z,-0.30
2019-02-28T22:35:42.160Z,-0.40
2019-02-28T22:38:10.697Z,-0.40
2019-02-28T22:40:39.173Z,-0.40
2019-02-28T22:43:07.669Z,-0.40
2019-02-28T22:45:36.193Z,-0.30
2019-02-28T22:48:04.737Z,-0.30
2019-02-28T22:50:33.354Z,-0.20
2019-02-28T22:53:01.873Z,-0.20
2019-02-28T22:55:30.517Z,-0.20
2019-02-28T22:57:59.108Z,-0.20
2019-02-28T23:00:57.864Z,-0.20
2019-02-28T23:03:26.910Z,-0.10
2019-02-28T23:05:55.434Z,-0.10
2019-02-28T23:08:23.890Z,-0.10
2019-02-28T23:10:52.640Z,-0.20
2019-02-28T23:13:40.447Z,-0.20
2019-02-28T23:16:09.103Z,-0.30
2019-02-28T23:18:37.633Z,-0.30
2019-02-28T23:21:06.080Z,-0.40
2019-02-28T23:23:34.611Z,-0.30
2019-02-28T23:26:08.521Z,-0.30
2019-02-28T23:28:40.115Z,-0.30
2019-02-28T23:31:23.438Z,-0.40
2019-02-28T23:34:01.104Z,-0.40
2019-02-28T23:36:22.786Z,-0.50
2019-02-28T23:38:51.295Z,-0.60
2019-02-28T23:41:19.869Z,-0.50
2019-02-28T23:43:48.390Z,-0.50
2019-02-28T23:46:16.852Z,-0.50
2019-02-28T23:48:45.349Z,-0.60
2019-02-28T23:51:13.809Z,-0.60
2019-02-28T23:53:42.344Z,-0.70
2019-02-28T23:56:10.857Z,-0.70
2019-02-28T23:58:39.449Z,-0.70
